createdAt,value
2018-06-21T00:00:05.005Z,72.10
2018-06-21T00:02:32.804Z,72.90
2018-06-21T00:05:00.573Z,71.80
2018-06-21T00:07:28.437Z,72.70
2018-06-21T00:09:56.240Z,73.40
2018-06-21T00:12:24.143Z,72.60
2018-06-21T00:14:51.900Z,72.90
2018-06-21T00:17:19.740Z,73.10
2018-06-21T00:19:47.494Z,73.00
2018-06-21T00:22:15.355Z,73.20
2018-06-21T00:24:43.148Z,72.20
2018-06-21T00:27:10.904Z,73.00
2018-06-21T00:32:06.380Z,72.10
2018-06-21T00:34:34.144Z,72.50
2018-06-21T00:37:01.961Z,71.80
2018-06-21T00:41:57.457Z,73.50
2018-06-21T00:44:25.260Z,74.40
2018-06-21T00:46:53.041Z,74.50
2018-06-21T00:49:20.833Z,75.00
2018-06-21T00:51:48.586Z,75.70
2018-06-21T00:54:16.387Z,74.70
2018-06-21T00:56:44.156Z,75.80
2018-06-21T00:59:11.941Z,75.80
2018-06-21T01:01:39.729Z,76.50
2018-06-21T01:04:07.543Z,77.90
2018-06-21T01:06:35.344Z,79.10
2018-06-21T01:13:59.172Z,80.30
2018-06-21T01:16:27.012Z,80.80
2018-06-21T01:18:54.896Z,82.00
2018-06-21T01:21:22.713Z,83.50
2018-06-21T01:23:50.481Z,83.20
2018-06-21T01:26:18.241Z,84.00
2018-06-21T01:28:46.009Z,84.30
2018-06-21T01:31:13.783Z,86.20
2018-06-21T01:33:41.538Z,85.70
2018-06-21T01:36:09.320Z,87.50
2018-06-21T01:38:37.036Z,86.90
2018-06-21T01:41:04.784Z,89.00
2018-06-21T01:43:32.532Z,90.20
2018-06-21T01:48:27.878Z,90.80
2018-06-21T01:50:55.613Z,91.80
2018-06-21T01:53:23.347Z,91.80
2018-06-21T01:55:51.080Z,92.30
2018-06-21T01:58:18.836Z,92.50
2018-06-21T02:00:46.573Z,93.00
2018-06-21T02:03:14.362Z,93.40
2018-06-21T02:05:42.105Z,93.40
2018-06-21T02:08:09.872Z,93.90
2018-06-21T02:10:37.635Z,94.20
2018-06-21T02:13:05.378Z,93.90
2018-06-21T02:15:33.102Z,93.40
2018-06-21T02:18:00.859Z,94.10
2018-06-21T02:20:28.589Z,94.00
2018-06-21T02:22:56.346Z,94.90
2018-06-21T02:25:24.119Z,95.40
2018-06-21T02:27:51.863Z,96.00
2018-06-21T02:30:19.608Z,96.60
2018-06-21T02:32:47.355Z,97.00
2018-06-21T02:35:15.085Z,97.50
2018-06-21T02:37:42.864Z,97.50
2018-06-21T02:40:10.591Z,97.70
2018-06-21T02:42:38.327Z,97.50
2018-06-21T02:45:06.118Z,98.00
2018-06-21T02:47:33.871Z,97.60
2018-06-21T02:50:01.640Z,97.60
2018-06-21T02:52:29.394Z,97.70
2018-06-21T02:54:57.237Z,98.60
2018-06-21T02:57:25.080Z,98.90
2018-06-21T02:59:52.831Z,99.40
2018-06-21T03:04:48.191Z,99.70
2018-06-21T03:07:15.928Z,99.30
2018-06-21T03:12:16.919Z,99.90
2018-06-21T03:14:44.679Z,99.90
2018-06-21T03:17:12.473Z,99.90
2018-06-21T03:19:40.237Z,99.90
2018-06-21T03:22:08.029Z,99.90
2018-06-21T03:24:35.786Z,99.90
2018-06-21T03:27:03.848Z,99.90
2018-06-21T03:29:31.559Z,99.90
2018-06-21T03:34:26.923Z,99.90
2018-06-21T03:36:55.057Z,99.90
2018-06-21T03:39:22.893Z,99.90
2018-06-21T03:41:50.660Z,99.90
2018-06-21T03:44:18.383Z,99.90
2018-06-21T03:46:46.123Z,99.90
2018-06-21T03:49:14.016Z,99.90
2018-06-21T03:51:41.783Z,99.90
2018-06-21T03:54:09.541Z,99.90
2018-06-21T03:56:37.316Z,99.90
2018-06-21T03:59:05.105Z,99.90
2018-06-21T04:01:32.880Z,99.90
2018-06-21T04:04:00.635Z,99.90
2018-06-21T04:06:28.417Z,99.90
2018-06-21T04:08:56.182Z,99.50
2018-06-21T04:16:19.568Z,99.50
2018-06-21T04:18:47.315Z,98.60
2018-06-21T04:21:15.079Z,99.00
2018-06-21T04:23:42.864Z,98.30
2018-06-21T04:28:38.233Z,98.60
2018-06-21T04:31:05.957Z,97.70
2018-06-21T04:36:01.375Z,97.70
2018-06-21T04:38:29.127Z,97.20
2018-06-21T04:40:56.901Z,98.20
2018-06-21T04:43:24.692Z,97.00
2018-06-21T04:45:52.485Z,96.80
2018-06-21T04:48:20.269Z,96.00
2018-06-21T04:50:48.020Z,96.00
2018-06-21T04:53:16.004Z,95.40
2018-06-21T04:55:43.735Z,95.70
2018-06-21T04:58:11.477Z,95.80
2018-06-21T05:00:39.264Z,96.40
2018-06-21T05:03:06.990Z,95.90
2018-06-21T05:05:34.779Z,96.60
2018-06-21T05:08:02.540Z,95.50
2018-06-21T05:10:30.287Z,95.70
2018-06-21T05:15:25.720Z,96.30
2018-06-21T05:17:53.500Z,97.00
2018-06-21T05:20:21.244Z,97.60
2018-06-21T05:22:49.006Z,97.70
2018-06-21T05:25:16.792Z,97.80
2018-06-21T05:27:44.500Z,97.60
2018-06-21T05:30:12.228Z,97.50
2018-06-21T05:32:39.991Z,97.10
2018-06-21T05:35:07.732Z,97.20
2018-06-21T05:40:03.192Z,95.70
2018-06-21T05:42:30.924Z,95.30
2018-06-21T05:47:26.355Z,96.30
2018-06-21T05:52:21.799Z,96.60
2018-06-21T05:54:49.588Z,96.80
2018-06-21T05:57:17.372Z,96.70
2018-06-21T05:59:45.085Z,97.20
2018-06-21T06:04:40.497Z,97.60
2018-06-21T06:07:08.263Z,98.00
2018-06-21T06:12:03.687Z,99.00
2018-06-21T06:14:31.422Z,98.90
2018-06-21T06:16:59.231Z,99.50
2018-06-21T06:19:27.017Z,99.80
2018-06-21T06:21:54.749Z,99.70
2018-06-21T06:24:22.543Z,99.90
2018-06-21T06:26:50.280Z,99.90
2018-06-21T06:29:18.004Z,99.90
2018-06-21T06:31:45.783Z,99.90
2018-06-21T06:34:13.507Z,99.90
2018-06-21T06:36:41.255Z,99.90
2018-06-21T06:39:19.012Z,99.90
2018-06-21T06:41:48.483Z,99.90
2018-06-21T06:44:16.572Z,99.90
2018-06-21T06:46:44.319Z,99.90
2018-06-21T06:49:12.477Z,99.90
2018-06-21T06:51:40.658Z,99.90
2018-06-21T06:54:09.505Z,99.90
2018-06-21T06:56:37.300Z,99.90
2018-06-21T06:59:05.359Z,99.90
2018-06-21T07:01:33.130Z,99.90
2018-06-21T07:04:00.978Z,99.90
2018-06-21T07:08:57.280Z,99.90
2018-06-21T07:11:26.424Z,99.90
2018-06-21T07:13:54.512Z,99.90
2018-06-21T07:16:22.416Z,99.90
2018-06-21T07:18:50.233Z,99.90
2018-06-21T07:21:18.427Z,99.90
2018-06-21T07:23:46.303Z,99.90
2018-06-21T07:26:14.122Z,99.90
2018-06-21T07:28:42.392Z,99.90
2018-06-21T07:31:10.263Z,99.90
2018-06-21T07:33:39.113Z,99.90
2018-06-21T07:36:06.935Z,99.90
2018-06-21T07:38:34.755Z,99.90
2018-06-21T07:41:02.572Z,99.90
2018-06-21T07:43:30.503Z,99.90
2018-06-21T07:45:58.311Z,99.90
2018-06-21T07:50:53.667Z,99.90
2018-06-21T07:53:21.463Z,99.90
2018-06-21T07:55:49.340Z,99.90
2018-06-21T07:58:17.448Z,99.90
2018-06-21T08:03:13.006Z,99.90
2018-06-21T08:05:40.780Z,98.90
2018-06-21T08:08:08.617Z,97.20
2018-06-21T08:10:36.428Z,96.90
2018-06-21T08:13:04.235Z,96.40
2018-06-21T08:17:59.808Z,92.40
2018-06-21T08:20:27.563Z,91.20
2018-06-21T08:22:55.339Z,90.10
2018-06-21T08:25:23.075Z,86.40
2018-06-21T08:27:50.972Z,85.70
2018-06-21T08:30:18.709Z,83.70
2018-06-21T08:32:46.452Z,85.90
2018-06-21T08:35:14.334Z,85.40
2018-06-21T08:37:42.168Z,85.60
2018-06-21T08:40:09.901Z,87.10
2018-06-21T08:42:37.691Z,84.80
2018-06-21T08:45:05.609Z,82.50
2018-06-21T08:47:33.372Z,77.50
2018-06-21T08:50:01.163Z,75.30
2018-06-21T08:52:28.925Z,75.40
2018-06-21T08:54:56.700Z,76.10
2018-06-21T08:57:24.475Z,74.50
2018-06-21T08:59:52.200Z,72.50
2018-06-21T09:02:20.026Z,69.30
2018-06-21T09:04:47.793Z,67.10
2018-06-21T09:09:43.199Z,62.80
2018-06-21T09:12:10.956Z,64.10
2018-06-21T09:14:38.680Z,66.20
2018-06-21T09:17:06.423Z,68.00
2018-06-21T09:22:01.985Z,65.40
2018-06-21T09:24:29.745Z,63.50
2018-06-21T09:26:57.593Z,63.90
2018-06-21T09:29:25.418Z,61.00
2018-06-21T09:34:21.150Z,53.10
2018-06-21T09:36:48.959Z,50.90
2018-06-21T09:39:22.453Z,51.30
2018-06-21T09:41:55.879Z,47.50
2018-06-21T09:44:28.986Z,44.00
2018-06-21T09:47:02.534Z,40.40
2018-06-21T09:49:31.564Z,38.50
2018-06-21T09:52:01.707Z,39.00
2018-06-21T09:54:29.736Z,42.20
2018-06-21T09:56:57.929Z,46.90
2018-06-21T09:59:25.995Z,47.40
2018-06-21T10:01:53.796Z,43.50
2018-06-21T10:04:21.650Z,38.40
2018-06-21T10:06:49.495Z,36.50
2018-06-21T10:09:17.437Z,34.50
2018-06-21T10:11:45.219Z,32.70
2018-06-21T10:14:12.971Z,34.20
2018-06-21T10:16:40.719Z,34.90
2018-06-21T10:19:08.592Z,34.30
2018-06-21T10:24:04.079Z,36.20
2018-06-21T10:26:31.900Z,36.00
2018-06-21T10:28:59.672Z,34.20
2018-06-21T10:33:55.124Z,34.50
2018-06-21T10:36:22.876Z,36.40
2018-06-21T10:38:50.647Z,34.80
2018-06-21T10:41:18.436Z,33.80
2018-06-21T10:43:46.250Z,37.00
2018-06-21T10:46:14.052Z,38.70
2018-06-21T10:48:41.857Z,39.70
2018-06-21T10:51:09.632Z,36.30
2018-06-21T10:53:37.415Z,33.20
2018-06-21T10:56:05.359Z,31.80
2018-06-21T10:58:33.187Z,32.60
2018-06-21T11:01:01.003Z,34.70
2018-06-21T11:03:28.871Z,34.40
2018-06-21T11:08:24.364Z,30.90
2018-06-21T11:10:52.197Z,28.90
2018-06-21T11:13:19.993Z,25.80
2018-06-21T11:15:47.820Z,24.30
2018-06-21T11:18:15.728Z,23.80
2018-06-21T11:20:43.661Z,26.90
2018-06-21T11:23:11.491Z,29.70
2018-06-21T11:28:07.127Z,27.80
2018-06-21T11:30:34.803Z,24.90
2018-06-21T11:33:02.628Z,23.70
2018-06-21T11:35:30.455Z,23.40
2018-06-21T11:37:58.247Z,23.80
2018-06-21T11:40:26.049Z,24.40
2018-06-21T11:42:53.837Z,23.40
2018-06-21T11:45:21.624Z,22.80
2018-06-21T11:47:49.472Z,23.80
2018-06-21T11:50:17.229Z,25.20
2018-06-21T11:57:40.302Z,19.80
2018-06-21T12:02:35.828Z,18.40
2018-06-21T12:05:03.650Z,18.30
2018-06-21T12:07:31.407Z,17.70
2018-06-21T12:09:59.192Z,18.00
2018-06-21T12:12:26.920Z,18.40
2018-06-21T12:14:54.703Z,19.00
2018-06-21T12:17:22.490Z,19.20
2018-06-21T12:19:50.316Z,19.00
2018-06-21T12:22:18.104Z,18.00
2018-06-21T12:24:45.870Z,17.30
2018-06-21T12:27:13.607Z,18.00
2018-06-21T12:29:41.345Z,18.90
2018-06-21T12:34:38.305Z,20.10
2018-06-21T12:37:06.279Z,19.20
2018-06-21T12:39:34.115Z,18.50
2018-06-21T12:44:29.636Z,20.40
2018-06-21T12:46:57.542Z,19.40
2018-06-21T12:49:25.328Z,18.40
2018-06-21T12:51:53.099Z,18.20
2018-06-21T12:54:20.868Z,19.70
2018-06-21T12:56:48.629Z,21.00
2018-06-21T12:59:17.249Z,19.70
2018-06-21T13:01:45.054Z,18.90
2018-06-21T13:04:12.836Z,19.40
2018-06-21T13:06:40.651Z,18.90
2018-06-21T13:09:19.587Z,19.50
2018-06-21T13:13:02.104Z,20.00
2018-06-21T13:15:29.877Z,21.10
2018-06-21T13:17:57.626Z,22.90
2018-06-21T13:20:25.472Z,23.10
2018-06-21T13:22:53.204Z,22.00
2018-06-21T13:25:20.983Z,22.60
2018-06-21T13:27:48.765Z,22.90
2018-06-21T13:30:16.508Z,23.10
2018-06-21T13:32:44.266Z,21.80
2018-06-21T13:35:12.088Z,21.20
2018-06-21T13:37:39.851Z,22.60
2018-06-21T13:40:07.705Z,23.10
2018-06-21T13:42:35.505Z,22.70
2018-06-21T13:45:03.541Z,23.80
2018-06-21T13:47:31.343Z,23.70
2018-06-21T13:57:22.125Z,22.60
2018-06-21T13:59:49.909Z,21.60
2018-06-21T14:02:17.770Z,20.80
2018-06-21T14:07:13.215Z,20.70
2018-06-21T14:09:40.983Z,20.60
2018-06-21T14:12:08.757Z,20.30
2018-06-21T14:14:36.522Z,20.40
2018-06-21T14:17:04.415Z,22.00
2018-06-21T14:21:59.850Z,22.00
2018-06-21T14:26:55.242Z,23.50
2018-06-21T14:29:23.062Z,23.20
2018-06-21T14:31:50.847Z,22.80
2018-06-21T14:34:18.668Z,23.50
2018-06-21T14:39:14.122Z,22.90
2018-06-21T14:41:41.940Z,23.10
2018-06-21T14:44:09.737Z,22.50
2018-06-21T14:46:37.522Z,23.30
2018-06-21T14:49:05.459Z,23.20
2018-06-21T14:54:00.832Z,24.70
2018-06-21T14:56:28.587Z,23.20
2018-06-21T14:58:56.422Z,23.40
2018-06-21T15:03:51.928Z,24.40
2018-06-21T15:06:19.709Z,24.80
2018-06-21T15:08:47.509Z,24.40
2018-06-21T15:11:15.314Z,24.30
2018-06-21T15:13:46.798Z,25.60
2018-06-21T15:18:42.943Z,26.40
2018-06-21T15:21:10.732Z,27.00
2018-06-21T15:23:38.600Z,26.70
2018-06-21T15:26:06.352Z,26.90
2018-06-21T15:28:35.101Z,26.90
2018-06-21T15:31:03.216Z,27.20
2018-06-21T15:35:58.715Z,27.40
2018-06-21T15:38:26.524Z,28.50
2018-06-21T15:40:54.348Z,27.50
2018-06-21T15:43:22.127Z,27.50
2018-06-21T15:45:49.937Z,28.60
2018-06-21T15:48:17.728Z,28.50
2018-06-21T15:50:45.668Z,29.50
2018-06-21T15:53:13.501Z,30.30
2018-06-21T15:55:41.276Z,30.90
2018-06-21T15:58:09.084Z,31.30
2018-06-21T16:00:36.855Z,31.50
2018-06-21T16:03:04.815Z,31.50
2018-06-21T16:05:32.580Z,31.60
2018-06-21T16:08:00.321Z,31.50
2018-06-21T16:10:28.120Z,30.50
2018-06-21T16:12:55.889Z,30.90
2018-06-21T16:15:23.680Z,30.00
2018-06-21T16:20:19.120Z,31.70
2018-06-21T16:22:46.938Z,31.40
2018-06-21T16:25:14.701Z,31.20
2018-06-21T16:27:42.554Z,31.50
2018-06-21T16:30:10.310Z,31.10
2018-06-21T16:32:38.091Z,30.00
2018-06-21T16:35:05.890Z,30.70
2018-06-21T16:40:01.384Z,31.50
2018-06-21T16:42:29.148Z,31.40
2018-06-21T16:44:56.872Z,32.60
2018-06-21T16:47:24.681Z,33.00
2018-06-21T16:49:52.452Z,32.10
2018-06-21T16:52:20.242Z,32.80
2018-06-21T16:54:48.046Z,31.80
2018-06-21T16:57:15.796Z,31.40
2018-06-21T17:02:11.255Z,31.40
2018-06-21T17:04:39.352Z,32.20
2018-06-21T17:07:07.166Z,31.80
2018-06-21T17:09:34.984Z,32.60
2018-06-21T17:12:02.788Z,33.50
2018-06-21T17:14:30.636Z,34.20
2018-06-21T17:16:58.429Z,34.10
2018-06-21T17:19:26.218Z,34.90
2018-06-21T17:21:54.100Z,35.50
2018-06-21T17:24:21.953Z,35.50
2018-06-21T17:26:49.815Z,35.30
2018-06-21T17:29:17.661Z,35.00
2018-06-21T17:31:45.449Z,36.80
2018-06-21T17:34:13.216Z,37.10
2018-06-21T17:36:41.314Z,37.90
2018-06-21T17:39:09.968Z,37.10
2018-06-21T17:41:37.763Z,38.10
2018-06-21T17:44:05.556Z,38.20
2018-06-21T17:46:33.341Z,37.30
2018-06-21T17:49:01.202Z,38.20
2018-06-21T17:51:29.098Z,38.00
2018-06-21T17:53:56.871Z,38.50
2018-06-21T17:56:24.643Z,39.20
2018-06-21T17:58:52.417Z,39.50
2018-06-21T18:01:20.180Z,39.40
2018-06-21T18:03:47.928Z,40.40
2018-06-21T18:06:15.728Z,40.50
2018-06-21T18:08:43.507Z,40.60
2018-06-21T18:11:11.308Z,41.20
2018-06-21T18:13:39.157Z,41.10
2018-06-21T18:16:06.900Z,42.10
2018-06-21T18:18:34.668Z,42.10
2018-06-21T18:21:02.416Z,41.60
2018-06-21T18:23:30.204Z,41.30
2018-06-21T18:25:58.020Z,42.30
2018-06-21T18:28:25.836Z,42.60
2018-06-21T18:33:21.275Z,43.50
2018-06-21T18:35:49.104Z,44.10
2018-06-21T18:38:16.896Z,45.10
2018-06-21T18:40:44.836Z,45.20
2018-06-21T18:43:12.895Z,44.90
2018-06-21T18:45:40.759Z,46.30
2018-06-21T18:48:08.593Z,46.20
2018-06-21T18:50:36.456Z,45.60
2018-06-21T18:53:04.296Z,46.40
2018-06-21T18:55:32.059Z,46.00
2018-06-21T18:57:59.823Z,45.60
2018-06-21T19:02:55.313Z,45.50
2018-06-21T19:05:23.073Z,45.70
2018-06-21T19:07:56.582Z,46.70
2018-06-21T19:10:30.066Z,47.20
2018-06-21T19:12:57.916Z,47.70
2018-06-21T19:15:26.202Z,47.40
2018-06-21T19:17:54.003Z,47.40
2018-06-21T19:20:21.768Z,47.90
2018-06-21T19:22:49.567Z,47.60
2018-06-21T19:25:17.424Z,48.70
2018-06-21T19:27:45.289Z,48.80
2018-06-21T19:30:13.144Z,49.00
2018-06-21T19:32:40.984Z,48.80
2018-06-21T19:35:08.736Z,49.60
2018-06-21T19:37:36.556Z,49.90
2018-06-21T19:40:04.442Z,50.30
2018-06-21T19:42:32.233Z,51.00
2018-06-21T19:45:00.035Z,51.50
2018-06-21T19:47:27.803Z,51.70
2018-06-21T19:49:55.866Z,51.80
2018-06-21T19:52:23.692Z,52.60
2018-06-21T19:54:51.464Z,53.20
2018-06-21T19:57:19.518Z,53.20
2018-06-21T19:59:47.381Z,54.20
2018-06-21T20:02:15.298Z,53.30
2018-06-21T20:04:43.300Z,53.80
2018-06-21T20:07:11.318Z,55.30
2018-06-21T20:09:39.158Z,55.30
2018-06-21T20:12:06.970Z,55.80
2018-06-21T20:14:34.774Z,55.80
2018-06-21T20:17:02.560Z,56.70
2018-06-21T20:19:35.924Z,57.30
2018-06-21T20:24:31.368Z,58.10
2018-06-21T20:26:59.162Z,58.00
2018-06-21T20:29:26.947Z,58.90
2018-06-21T20:31:55.149Z,60.60
2018-06-21T20:39:18.335Z,61.00
2018-06-21T20:41:46.193Z,61.00
2018-06-21T20:44:14.018Z,61.40
2018-06-21T20:46:41.776Z,61.40
2018-06-21T20:49:09.560Z,62.20
2018-06-21T20:51:37.316Z,61.90
2018-06-21T20:54:05.164Z,63.40
2018-06-21T20:56:33.009Z,63.80
2018-06-21T20:59:00.916Z,64.30
2018-06-21T21:01:28.672Z,63.40
2018-06-21T21:03:56.439Z,63.40
2018-06-21T21:06:24.174Z,62.70
2018-06-21T21:08:52.095Z,62.00
2018-06-21T21:11:19.906Z,60.10
2018-06-21T21:13:47.719Z,60.50
2018-06-21T21:16:15.434Z,59.40
2018-06-21T21:18:43.236Z,59.10
2018-06-21T21:21:10.995Z,59.80
2018-06-21T21:23:38.798Z,59.70
2018-06-21T21:26:06.528Z,59.40
2018-06-21T21:28:34.739Z,60.10
2018-06-21T21:31:02.968Z,60.20
2018-06-21T21:33:32.270Z,59.60
2018-06-21T21:36:00.372Z,59.80
2018-06-21T21:38:28.248Z,59.10
2018-06-21T21:40:55.988Z,60.20
2018-06-21T21:43:24.192Z,61.10
2018-06-21T21:48:19.816Z,61.80
2018-06-21T21:50:47.734Z,62.10
2018-06-21T21:53:15.701Z,62.60
2018-06-21T21:55:43.596Z,62.50
2018-06-21T21:58:11.363Z,62.10
2018-06-21T22:00:43.732Z,62.50
2018-06-21T22:03:11.496Z,62.80
2018-06-21T22:05:39.508Z,62.60
2018-06-21T22:08:07.661Z,62.40
2018-06-21T22:10:35.548Z,62.40
2018-06-21T22:13:03.471Z,62.60
2018-06-21T22:15:31.261Z,63.40
2018-06-21T22:17:59.055Z,62.60
2018-06-21T22:20:26.880Z,64.00
2018-06-21T22:22:55.363Z,64.60
2018-06-21T22:25:23.162Z,65.70
2018-06-21T22:27:50.972Z,66.00
2018-06-21T22:30:18.741Z,67.00
2018-06-21T22:32:46.510Z,66.80
2018-06-21T22:35:14.360Z,66.40
2018-06-21T22:37:42.256Z,66.70
2018-06-21T22:40:10.160Z,67.00
2018-06-21T22:42:38.034Z,67.60
2018-06-21T22:45:05.836Z,66.50
2018-06-21T22:47:33.659Z,67.00
2018-06-21T22:50:01.384Z,67.10
2018-06-21T22:52:29.156Z,69.20
2018-06-21T22:54:56.948Z,68.20
2018-06-21T22:57:24.685Z,67.70
2018-06-21T22:59:52.494Z,68.20
2018-06-21T23:02:20.268Z,68.40
2018-06-21T23:04:48.004Z,68.80
2018-06-21T23:07:15.782Z,69.00
2018-06-21T23:09:43.560Z,69.70
2018-06-21T23:12:11.373Z,71.00
2018-06-21T23:14:39.272Z,71.50
2018-06-21T23:17:07.081Z,72.30
2018-06-21T23:19:34.817Z,72.80
2018-06-21T23:24:30.855Z,77.70
2018-06-21T23:29:26.324Z,78.50
2018-06-21T23:31:54.184Z,79.80
2018-06-21T23:34:22.160Z,80.70
2018-06-21T23:36:50.476Z,80.20
2018-06-21T23:39:18.241Z,80.40
2018-06-21T23:41:46.008Z,80.50
2018-06-21T23:44:14.346Z,81.10
2018-06-21T23:46:42.844Z,80.80
2018-06-21T23:49:11.552Z,79.80
2018-06-21T23:54:09.004Z,79.30
2018-06-21T23:56:36.864Z,80.30
2018-06-21T23:59:04.779Z,78.60
